Terminal Aerodrome Forecast
Issued by NWS Wilmington, OH

Current Version | Previous Version | Graphics & Text | Print | Product List | Glossary Off
Versions: 1 2 3 4 5 6 7 8 9 10 11 12 13 14 15 16 17 18 19 20 21 22 23 24 25 26 27 28 29 30 31

000
FTUS41 KILN 271400 AAA
TAFCVG
TAF AMD
KCVG 271422Z 2714/2818 30012G18KT P6SM BKN035
     FM280100 30009KT P6SM BKN025
     FM280600 VRB04KT P6SM SCT025
     FM281200 19006KT P6SM SCT025 BKN120=

USA.gov is the U.S. government's official web portal to all federal, state and local government web resources and services.